Superfast Baleares — EBXD — position and weather

sailwx.info

Track history (hours):
 
Tides and Currents Weather Stations Pressure Air Temp Water Temp Dewpoint Dewpoint Depression Visibility Wind Speed Wind Dir Waves Ship Positions

Superfast Baleares

Last reported at 2016-Jun-29 12:31 UTC. Time now 2016-Jun-29 12:50 UTC.
Position N 57°41' E 011°50'.

Length 210 m; draft 6.5 m.

Type: Ship (hazmat cat A). MMSI: 225405000.

Date/timePositionNaut miles runAvg speedWind from/ knotsBaromVisibWave heightAir tempDewpointWater temp
2016-Jun-29 12:31N 57°41' E 011°50'0 0.0
2016-Jun-29 11:31N 57°41' E 011°50'0 0.0
2016-Jun-29 10:31N 57°41' E 011°50'0 0.0
2016-Jun-29 09:31N 57°41' E 011°50'0 0.0
2016-Jun-29 08:34N 57°41' E 011°50'0 0.0
2016-Jun-29 07:33N 57°41' E 011°50'0 0.0
2016-Jun-29 06:34N 57°41' E 011°50'0 0.0
2016-Jun-29 05:33N 57°41' E 011°50'8 8.4
2016-Jun-29 04:33N 57°37' E 011°37'45118.6
2016-Jun-28 04:17N 53°37' E 000°21'912.7
2016-Jun-28 03:32N 53°34' E 000°06'1211.7
2016-Jun-28 02:33N 53°38' W 000°12'0 0.0
2016-Jun-28 01:33N 53°38' W 000°12'0 0.0
2016-Jun-28 00:33N 53°38' W 000°12'0 0.0
2016-Jun-27 23:30N 53°38' W 000°12'0 0.0
2016-Jun-27 22:33N 53°38' W 000°12'0 0.0
2016-Jun-27 21:33N 53°38' W 000°12'0 0.0
2016-Jun-27 20:33N 53°38' W 000°12'0 0.0
2016-Jun-27 19:33N 53°38' W 000°12'0 0.0
2016-Jun-27 18:30N 53°38' W 000°12'0 0.0
2016-Jun-27 17:33N 53°38' W 000°12'0 0.0
2016-Jun-27 16:21N 53°38' W 000°12'0 0.0
2016-Jun-27 14:06N 53°38' W 000°12'0 0.0
2016-Jun-27 13:27N 53°38' W 000°12'0 0.0
2016-Jun-27 12:27N 53°38' W 000°12'0 0.0
2016-Jun-27 11:27N 53°38' W 000°12'0 0.0
2016-Jun-27 10:30N 53°38' W 000°12'0 0.0
2016-Jun-27 09:33N 53°38' W 000°12'0 0.0
2016-Jun-27 08:33N 53°38' W 000°12'0 0.0
2016-Jun-27 07:34N 53°38' W 000°12'0 0.0
2016-Jun-27 06:33N 53°38' W 000°12'0 0.0
2016-Jun-27 05:33N 53°38' W 000°12'0 0.0
2016-Jun-27 04:33N 53°38' W 000°12'0 0.0
2016-Jun-27 03:33N 53°38' W 000°12'0 0.0
2016-Jun-27 02:33N 53°38' W 000°12'0 0.0
2016-Jun-27 01:33N 53°38' W 000°12'0 0.0
2016-Jun-27 00:33N 53°38' W 000°12'0 0.0
2016-Jun-26 23:34N 53°38' W 000°12'0 0.1
2016-Jun-26 22:33N 53°38' W 000°12'3 2.9
2016-Jun-26 21:33N 53°37' W 000°07'43717.3
2016-Jun-25 20:22N 57°47' E 010°29'1518.2
2016-Jun-25 19:32N 57°46' E 010°57'1919.5
2016-Jun-25 18:33N 57°38' E 011°29'1211.6
2016-Jun-25 17:33N 57°41' E 011°50'0 0.2
2016-Jun-25 16:33N 57°41' E 011°50'0 0.0
2016-Jun-25 15:33N 57°41' E 011°50'0 0.0
2016-Jun-25 14:33N 57°41' E 011°50'0 0.0
2016-Jun-25 13:33N 57°41' E 011°50'0 0.0
2016-Jun-25 12:33N 57°41' E 011°50'0 0.0
2016-Jun-25 11:33N 57°41' E 011°50'0 0.0
2016-Jun-25 10:33N 57°41' E 011°50'0 0.0
2016-Jun-25 09:33N 57°41' E 011°50'0 0.0
2016-Jun-25 08:33N 57°41' E 011°50'8 7.7
2016-Jun-25 07:34N 57°37' E 011°39'46717.3
2016-Jun-24 04:33N 53°38' W 000°12'0 0.0
2016-Jun-24 03:33N 53°38' W 000°12'0 0.0
2016-Jun-24 02:33N 53°38' W 000°12'0 0.0
2016-Jun-24 01:33N 53°38' W 000°12'0 0.0
2016-Jun-24 00:33N 53°38' W 000°12'0 0.0
2016-Jun-23 23:33N 53°38' W 000°12'0 0.0
2016-Jun-23 22:34N 53°38' W 000°12'0 0.0
2016-Jun-23 21:34N 53°38' W 000°12'1 0.5
2016-Jun-23 20:33N 53°39' W 000°11'9 8.9
2016-Jun-23 19:32N 53°35' E 000°03'44719.2
2016-Jun-22 20:15N 57°46' E 010°60'1420.3
2016-Jun-22 19:34N 57°40' E 011°23'1413.7
2016-Jun-22 18:33N 57°41' E 011°48'1 1.1
2016-Jun-22 17:33N 57°41' E 011°50'0 0.0
2016-Jun-22 16:33N 57°41' E 011°50'0 0.0
2016-Jun-22 15:33N 57°41' E 011°50'0 0.0
2016-Jun-22 14:33N 57°41' E 011°50'0 0.0
2016-Jun-22 13:33N 57°41' E 011°50'0 0.0
2016-Jun-22 12:34N 57°41' E 011°50'0 0.0
2016-Jun-22 11:33N 57°41' E 011°50'0 0.0
2016-Jun-22 10:33N 57°41' E 011°50'0 0.0
2016-Jun-22 09:33N 57°41' E 011°50'0 0.0
2016-Jun-22 08:33N 57°41' E 011°50'0 0.0
2016-Jun-22 07:33N 57°41' E 011°50'0 0.0
2016-Jun-22 06:33N 57°41' E 011°50'0 0.0
2016-Jun-22 05:33N 57°41' E 011°50'7 7.0
2016-Jun-22 04:33N 57°37' E 011°40'1414.4
2016-Jun-22 03:33N 57°42' E 011°15'1414.0
2016-Jun-22 02:33N 57°48' E 010°51'43319.4
2016-Jun-21 04:10N 53°38' E 000°22'1016.5
2016-Jun-21 03:33N 53°33' E 000°08'1211.6
2016-Jun-21 02:33N 53°38' W 000°10'1 1.3
2016-Jun-21 01:33N 53°38' W 000°12'0 0.0
2016-Jun-21 00:33N 53°38' W 000°12'0 0.0
2016-Jun-20 23:33N 53°38' W 000°12'0 0.0
2016-Jun-20 22:33N 53°38' W 000°12'0 0.0
2016-Jun-20 21:18N 53°38' W 000°12'0 0.0
2016-Jun-20 20:33N 53°38' W 000°12'1 1.1
2016-Jun-20 19:33N 53°38' W 000°10'6 6.0
2016-Jun-20 18:33N 53°36' W 000°01'5 4.8
2016-Jun-20 17:33N 53°33' E 000°06'0 0.0
2016-Jun-20 16:33N 53°33' E 000°05'0 0.0
2016-Jun-20 15:34N 53°33' E 000°05'0 0.0
2016-Jun-20 14:34N 53°33' E 000°05'0 0.0
2016-Jun-20 13:33N 53°33' E 000°05'2 1.8
2016-Jun-20 12:33N 53°34' E 000°06'1111.3
2016-Jun-20 11:34N 53°38' W 000°12'0 0.0
2016-Jun-20 10:33N 53°38' W 000°12'0 0.0
2016-Jun-20 09:33N 53°38' W 000°12'0 0.0
2016-Jun-20 08:33N 53°38' W 000°12'0 0.0
2016-Jun-20 07:33N 53°38' W 000°12'0 0.0
2016-Jun-20 06:33N 53°38' W 000°12'0 0.0
2016-Jun-20 05:34N 53°38' W 000°12'0 0.0
2016-Jun-20 04:34N 53°38' W 000°12'0 0.0
2016-Jun-20 03:34N 53°38' W 000°12'0 0.0
2016-Jun-20 02:33N 53°38' W 000°12'0 0.0
2016-Jun-20 01:34N 53°38' W 000°12'0 0.0
2016-Jun-20 00:33N 53°38' W 000°12'0 0.0
2016-Jun-19 23:33N 53°38' W 000°12'0 0.5
2016-Jun-19 22:33N 53°39' W 000°11'1111.4
2016-Jun-19 21:33N 53°34' E 000°06'  
Track history (hours):
 
Tides and Currents Weather Stations Pressure Air Temp Water Temp Dewpoint Dewpoint Depression Visibility Wind Speed Wind Dir Waves Ship Positions

Superfast Baleares

Last reported at 2016-Jun-29 12:31 UTC. Time now 2016-Jun-29 12:50 UTC.
Position N 57°41' E 011°50'.

Length 210 m; draft 6.5 m.

Type: Ship (hazmat cat A). MMSI: 225405000.

Date/timePositionNaut miles runAvg speedWind from/ knotsBaromVisibWave heightAir tempDewpointWater temp
2016-Jun-29 12:31N 57°41' E 011°50'0 0.0
2016-Jun-29 11:31N 57°41' E 011°50'0 0.0
2016-Jun-29 10:31N 57°41' E 011°50'0 0.0
2016-Jun-29 09:31N 57°41' E 011°50'0 0.0
2016-Jun-29 08:34N 57°41' E 011°50'0 0.0
2016-Jun-29 07:33N 57°41' E 011°50'0 0.0
2016-Jun-29 06:34N 57°41' E 011°50'0 0.0
2016-Jun-29 05:33N 57°41' E 011°50'8 8.4
2016-Jun-29 04:33N 57°37' E 011°37'45118.6
2016-Jun-28 04:17N 53°37' E 000°21'912.7
2016-Jun-28 03:32N 53°34' E 000°06'1211.7
2016-Jun-28 02:33N 53°38' W 000°12'0 0.0
2016-Jun-28 01:33N 53°38' W 000°12'0 0.0
2016-Jun-28 00:33N 53°38' W 000°12'0 0.0
2016-Jun-27 23:30N 53°38' W 000°12'0 0.0
2016-Jun-27 22:33N 53°38' W 000°12'0 0.0
2016-Jun-27 21:33N 53°38' W 000°12'0 0.0
2016-Jun-27 20:33N 53°38' W 000°12'0 0.0
2016-Jun-27 19:33N 53°38' W 000°12'0 0.0
2016-Jun-27 18:30N 53°38' W 000°12'0 0.0
2016-Jun-27 17:33N 53°38' W 000°12'0 0.0
2016-Jun-27 16:21N 53°38' W 000°12'0 0.0
2016-Jun-27 14:06N 53°38' W 000°12'0 0.0
2016-Jun-27 13:27N 53°38' W 000°12'0 0.0
2016-Jun-27 12:27N 53°38' W 000°12'0 0.0
2016-Jun-27 11:27N 53°38' W 000°12'0 0.0
2016-Jun-27 10:30N 53°38' W 000°12'0 0.0
2016-Jun-27 09:33N 53°38' W 000°12'0 0.0
2016-Jun-27 08:33N 53°38' W 000°12'0 0.0
2016-Jun-27 07:34N 53°38' W 000°12'0 0.0
2016-Jun-27 06:33N 53°38' W 000°12'0 0.0
2016-Jun-27 05:33N 53°38' W 000°12'0 0.0
2016-Jun-27 04:33N 53°38' W 000°12'0 0.0
2016-Jun-27 03:33N 53°38' W 000°12'0 0.0
2016-Jun-27 02:33N 53°38' W 000°12'0 0.0
2016-Jun-27 01:33N 53°38' W 000°12'0 0.0
2016-Jun-27 00:33N 53°38' W 000°12'0 0.0
2016-Jun-26 23:34N 53°38' W 000°12'0 0.1
2016-Jun-26 22:33N 53°38' W 000°12'3 2.9
2016-Jun-26 21:33N 53°37' W 000°07'43717.3
2016-Jun-25 20:22N 57°47' E 010°29'1518.2
2016-Jun-25 19:32N 57°46' E 010°57'1919.5
2016-Jun-25 18:33N 57°38' E 011°29'1211.6
2016-Jun-25 17:33N 57°41' E 011°50'0 0.2
2016-Jun-25 16:33N 57°41' E 011°50'0 0.0
2016-Jun-25 15:33N 57°41' E 011°50'0 0.0
2016-Jun-25 14:33N 57°41' E 011°50'0 0.0
2016-Jun-25 13:33N 57°41' E 011°50'0 0.0
2016-Jun-25 12:33N 57°41' E 011°50'0 0.0
2016-Jun-25 11:33N 57°41' E 011°50'0 0.0
2016-Jun-25 10:33N 57°41' E 011°50'0 0.0
2016-Jun-25 09:33N 57°41' E 011°50'0 0.0
2016-Jun-25 08:33N 57°41' E 011°50'8 7.7
2016-Jun-25 07:34N 57°37' E 011°39'46717.3
2016-Jun-24 04:33N 53°38' W 000°12'0 0.0
2016-Jun-24 03:33N 53°38' W 000°12'0 0.0
2016-Jun-24 02:33N 53°38' W 000°12'0 0.0
2016-Jun-24 01:33N 53°38' W 000°12'0 0.0
2016-Jun-24 00:33N 53°38' W 000°12'0 0.0
2016-Jun-23 23:33N 53°38' W 000°12'0 0.0
2016-Jun-23 22:34N 53°38' W 000°12'0 0.0
2016-Jun-23 21:34N 53°38' W 000°12'1 0.5
2016-Jun-23 20:33N 53°39' W 000°11'9 8.9
2016-Jun-23 19:32N 53°35' E 000°03'44719.2
2016-Jun-22 20:15N 57°46' E 010°60'1420.3
2016-Jun-22 19:34N 57°40' E 011°23'1413.7
2016-Jun-22 18:33N 57°41' E 011°48'1 1.1
2016-Jun-22 17:33N 57°41' E 011°50'0 0.0
2016-Jun-22 16:33N 57°41' E 011°50'0 0.0
2016-Jun-22 15:33N 57°41' E 011°50'0 0.0
2016-Jun-22 14:33N 57°41' E 011°50'0 0.0
2016-Jun-22 13:33N 57°41' E 011°50'0 0.0
2016-Jun-22 12:34N 57°41' E 011°50'0 0.0
2016-Jun-22 11:33N 57°41' E 011°50'0 0.0
2016-Jun-22 10:33N 57°41' E 011°50'0 0.0
2016-Jun-22 09:33N 57°41' E 011°50'0 0.0
2016-Jun-22 08:33N 57°41' E 011°50'0 0.0
2016-Jun-22 07:33N 57°41' E 011°50'0 0.0
2016-Jun-22 06:33N 57°41' E 011°50'0 0.0
2016-Jun-22 05:33N 57°41' E 011°50'7 7.0
2016-Jun-22 04:33N 57°37' E 011°40'1414.4
2016-Jun-22 03:33N 57°42' E 011°15'1414.0
2016-Jun-22 02:33N 57°48' E 010°51'43319.4
2016-Jun-21 04:10N 53°38' E 000°22'1016.5
2016-Jun-21 03:33N 53°33' E 000°08'1211.6
2016-Jun-21 02:33N 53°38' W 000°10'1 1.3
2016-Jun-21 01:33N 53°38' W 000°12'0 0.0
2016-Jun-21 00:33N 53°38' W 000°12'0 0.0
2016-Jun-20 23:33N 53°38' W 000°12'0 0.0
2016-Jun-20 22:33N 53°38' W 000°12'0 0.0
2016-Jun-20 21:18N 53°38' W 000°12'0 0.0
2016-Jun-20 20:33N 53°38' W 000°12'1 1.1
2016-Jun-20 19:33N 53°38' W 000°10'6 6.0
2016-Jun-20 18:33N 53°36' W 000°01'5 4.8
2016-Jun-20 17:33N 53°33' E 000°06'0 0.0
2016-Jun-20 16:33N 53°33' E 000°05'0 0.0
2016-Jun-20 15:34N 53°33' E 000°05'0 0.0
2016-Jun-20 14:34N 53°33' E 000°05'0 0.0
2016-Jun-20 13:33N 53°33' E 000°05'2 1.8
2016-Jun-20 12:33N 53°34' E 000°06'1111.3
2016-Jun-20 11:34N 53°38' W 000°12'0 0.0
2016-Jun-20 10:33N 53°38' W 000°12'0 0.0
2016-Jun-20 09:33N 53°38' W 000°12'0 0.0
2016-Jun-20 08:33N 53°38' W 000°12'0 0.0
2016-Jun-20 07:33N 53°38' W 000°12'0 0.0
2016-Jun-20 06:33N 53°38' W 000°12'0 0.0
2016-Jun-20 05:34N 53°38' W 000°12'0 0.0
2016-Jun-20 04:34N 53°38' W 000°12'0 0.0
2016-Jun-20 03:34N 53°38' W 000°12'0 0.0
2016-Jun-20 02:33N 53°38' W 000°12'0 0.0
2016-Jun-20 01:34N 53°38' W 000°12'0 0.0
2016-Jun-20 00:33N 53°38' W 000°12'0 0.0
2016-Jun-19 23:33N 53°38' W 000°12'0 0.5
2016-Jun-19 22:33N 53°39' W 000°11'1111.4
2016-Jun-19 21:33N 53°34' E 000°06'  

Dump ship's entire track history